Flight Track Log - Related Links

Times and Time Zones

All times are in EDT time to prevent confusion due to time zone crossing. See the RPA3228 flight status page for this flight to view local times or setup timezone preferences in your user account.

Time Position Orientation Groundspeed Altitude Reporting Facility
EDT Latitude Longitude Course Direction KTS MPH feet Rate Location/Type
Sun 08:45:03 AM 32.8547 -80.0414 13° North 181 208 1,500  Level Jacksonville Center
Sun 08:46:03 AM 32.8869 -79.9883 54° Northeast 201 231 3,300 2,150 Climbing Jacksonville Center
Sun 08:47:00 AM 33.2303 -79.9306 North  Level FlightAware Approximate
Sun 08:47:03 AM 32.9481 -79.9294 39° Northeast 226 260 5,800  Level Jacksonville Center
Sun 08:48:00 AM 33.3177 -79.9078 23° Northeast  Level FlightAware Approximate
Sun 08:48:03 AM 33.0275 -79.9344 357° North 238 274 8,800  Level Jacksonville Center
Sun 08:49:00 AM 33.4030 -79.8761 North  Level FlightAware Approximate
Sun 08:49:03 AM 33.1111 -79.9367 359° North 263 303 11,100  Level Jacksonville Center
Sun 08:50:00 AM 33.4912 -79.8549 13° North  Level FlightAware Approximate
Sun 08:50:03 AM 33.2050 -79.9383 359° North 298 343 13,600  Level Jacksonville Center
Sun 08:51:03 AM 33.2975 -79.8831 27° Northeast 336 387 16,400 2,300 Climbing Jacksonville Center
Sun 08:52:03 AM 33.3922 -79.8228 28° Northeast 349 402 18,200 2,200 Climbing Jacksonville Center
Sun 08:53:03 AM 33.4928 -79.7569 29° Northeast 377 434 20,800 2,200 Climbing Jacksonville Center
Sun 08:54:03 AM 33.5975 -79.6908 28° Northeast 399 459 22,600 1,900 Climbing Jacksonville Center
Sun 08:55:03 AM 33.7064 -79.6222 28° Northeast 421 484 24,600 1,800 Climbing Jacksonville Center
Sun 08:56:03 AM 33.8172 -79.5531 27° Northeast 432 497 26,200 1,490 Climbing Jacksonville Center
Sun 08:57:40 AM 33.9972 -79.4392 28° Northeast 473 544 28,500 1,291 Climbing Washington Center
Sun 08:58:41 AM 34.1144 -79.3619 29° Northeast 478 550 29,600 1,041 Climbing Washington Center
Sun 08:59:41 AM 34.2400 -79.2822 28° Northeast 483 556 30,600 1,140 Climbing Washington Center
Sun 09:00:42 AM 34.3656 -79.2072 26° Northeast 496 571 31,900 1,210 Climbing Washington Center
Sun 09:01:40 AM 34.4908 -79.1347 25° Northeast 496 571 33,000 559 Climbing Washington Center
Sun 09:02:40 AM 34.6158 -79.0644 25° Northeast 491 565 33,000  Level Washington Center
Sun 09:03:42 AM 34.7389 -78.9914 26° Northeast 491 565 33,000  Level Washington Center
Sun 09:04:39 AM 34.8619 -78.9206 25° Northeast 491 565 33,000  Level Washington Center
Sun 09:05:40 AM 34.9850 -78.8469 26° Northeast 491 565 33,000  Level Washington Center
Sun 09:06:40 AM 35.1081 -78.7758 25° Northeast 491 565 33,000  Level Washington Center
Sun 09:07:41 AM 35.2308 -78.7044 25° Northeast 491 565 33,000  Level Washington Center
Sun 09:08:41 AM 35.3561 -78.6278 27° Northeast 491 565 33,000  Level Washington Center
Sun 09:09:42 AM 35.4725 -78.5608 25° Northeast 499 574 33,000  Level Washington Center
Sun 09:10:42 AM 35.5975 -78.4861 26° Northeast 499 574 33,000  Level Washington Center
Sun 09:11:41 AM 35.7264 -78.4089 26° Northeast 499 574 33,000  Level Washington Center
Sun 09:12:41 AM 35.8514 -78.3339 26° Northeast 499 574 33,000 -298 Level Washington Center
Sun 09:13:42 AM 35.9783 -78.2589 26° Northeast 499 574 32,400 -1,210 Descending Washington Center
Sun 09:14:40 AM 36.1050 -78.1833 26° Northeast 499 574 30,600 -1,831 Descending Washington Center
Sun 09:15:40 AM 36.2297 -78.1078 26° Northeast 499 574 28,800 -1,736 Descending Washington Center
Sun 09:16:41 AM 36.3544 -78.0317 26° Northeast 494 568 27,100 -942 Descending Washington Center
Sun 09:17:41 AM 36.4769 -77.9556 27° Northeast 494 568 26,900 -1,160 Descending Washington Center
Sun 09:18:40 AM 36.5975 -77.8789 27° Northeast 494 568 24,800 -2,067 Descending Washington Center
Sun 09:19:40 AM 36.7156 -77.8100 25° Northeast 480 552 22,800 -1,388 Descending Washington Center
Sun 09:20:41 AM 36.8294 -77.7406 26° Northeast 462 532 22,000 -397 Descending Washington Center
Sun 09:21:41 AM 36.9433 -77.6683 27° Northeast 455 524 22,000  Level Washington Center
Sun 09:22:40 AM 37.0572 -77.5986 26° Northeast 455 524 22,000  Level Washington Center
Sun 09:23:41 AM 37.1728 -77.5467 20° North 450 518 22,000  Level Washington Center
Sun 09:24:41 AM 37.2925 -77.5028 16° North 444 511 22,000  Level Washington Center
Sun 09:25:40 AM 37.4119 -77.4639 14° North 439 505 22,000  Level Washington Center
Sun 09:26:40 AM 37.5253 -77.4247 15° North 434 499 22,000  Level Washington Center
Sun 09:27:40 AM 37.6425 -77.3858 15° North 434 499 22,000  Level Washington Center
Sun 09:28:41 AM 37.7581 -77.3439 16° North 434 499 22,000  Level Washington Center
Sun 09:29:40 AM 37.8733 -77.3044 15° North 434 499 22,000 -500 Level Washington Center
Sun 09:30:41 AM 37.9886 -77.2622 16° North 434 499 21,000 -2,361 Descending Washington Center
Sun 09:31:42 AM 38.0975 -77.2278 14° North 422 486 17,200 -3,429 Descending Washington Center
Sun 09:32:40 AM 38.2064 -77.1878 16° North 407 468 14,200 -3,176 Descending Washington Center
Sun 09:33:41 AM 38.3028 -77.1553 15° North 380 437 10,900 -2,350 Descending Washington Center
Sun 09:34:40 AM 38.3883 -77.1414 North 338 389 9,500 -1,664 Descending Washington Center
Sun 09:35:40 AM 38.4658 -77.1244 10° North 300 345 7,600 -1,700 Descending Washington Center
Sun 09:36:40 AM 38.5411 -77.1047 12° North 281 323 6,100 -1,550 Descending Washington Center
Sun 09:37:40 AM 38.6142 -77.0875 10° North 270 311 4,500 -1,676 Descending Washington Center
Sun 09:38:31 AM 38.6833 -77.0500 23° Northeast 253 291 3,000 -1,339 Descending Potomac TRACON
Sun 09:39:32 AM 38.7333 -77.0333 15° North 218 251 2,000 -984 Descending Potomac TRACON

Login

Don't have an account? Register now (free) for customized features, flight alerts, and more!